Time;durP1;ratioP1;P1;durP2;ratioP2;P2;SDS_P1;SDS_P2;PMS_P1;PMS_P2;Temp;Humidity;BMP_temperature;BMP_pressure;BME280_temperature;BME280_humidity;BME280_pressure;Samples;Min_cycle;Max_cycle;Signal;HPM_P1;HPM_P2
2021/03/01 00:01:51;;;;;;;53.45;29.45;;;;;;;;;;5119482;27;20015;-72
2021/03/01 00:04:17;;;;;;;57.45;30.00;;;;;;;;;;5137376;27;20019;-71
2021/03/01 00:06:43;;;;;;;66.00;35.53;;;;;;;;;;5119329;27;20016;-71
2021/03/01 00:09:09;;;;;;;77.40;36.10;;;;;;;;;;5119401;27;20019;-71
2021/03/01 00:11:35;;;;;;;85.68;40.85;;;;;;;;;;5137498;27;20026;-72
2021/03/01 00:14:02;;;;;;;74.47;38.60;;;;;;;;;;5137482;27;20367;-71
2021/03/01 00:16:28;;;;;;;58.50;31.25;;;;;;;;;;5119296;27;20024;-71
2021/03/01 00:18:54;;;;;;;52.90;27.63;;;;;;;;;;5118943;27;20022;-71
2021/03/01 00:21:20;;;;;;;46.30;25.40;;;;;;;;;;5119806;27;20023;-70
2021/03/01 00:23:47;;;;;;;51.22;26.45;;;;;;;;;;5136861;27;20023;-69
2021/03/01 00:26:13;;;;;;;41.30;20.98;;;;;;;;;;5118306;27;20015;-71
2021/03/01 00:28:41;;;;;;;34.50;20.05;;;;;;;;;;5137721;27;20054;-71
2021/03/01 00:31:07;;;;;;;42.72;22.33;;;;;;;;;;5137158;27;20011;-70
2021/03/01 00:33:33;;;;;;;35.40;20.52;;;;;;;;;;5118983;27;20027;-70
2021/03/01 00:35:59;;;;;;;33.70;20.00;;;;;;;;;;5137597;27;20015;-70
2021/03/01 00:38:25;;;;;;;35.30;19.55;;;;;;;;;;5136995;27;20491;-70
2021/03/01 00:40:51;;;;;;;38.47;21.77;;;;;;;;;;5118524;27;20043;-71
2021/03/01 00:43:17;;;;;;;39.00;20.50;;;;;;;;;;5118705;27;20031;-69
2021/03/01 00:45:43;;;;;;;46.03;23.88;;;;;;;;;;5137016;27;20076;-70
2021/03/01 00:48:10;;;;;;;39.05;21.27;;;;;;;;;;5136787;27;20015;-70
2021/03/01 00:50:36;;;;;;;39.83;22.25;;;;;;;;;;5137002;27;20360;-70
2021/03/01 00:53:02;;;;;;;39.47;22.15;;;;;;;;;;5118268;27;20019;-69
2021/03/01 00:55:28;;;;;;;46.67;21.00;;;;;;;;;;5136868;27;20015;-70
2021/03/01 00:57:54;;;;;;;40.65;22.73;;;;;;;;;;5118459;27;20046;-70
2021/03/01 01:00:21;;;;;;;40.63;22.75;;;;;;;;;;5136276;27;20015;-69
2021/03/01 01:02:47;;;;;;;42.70;25.10;;;;;;;;;;5136825;27;20027;-69
2021/03/01 01:05:13;;;;;;;41.47;22.98;;;;;;;;;;5136483;27;20019;-71
2021/03/01 01:07:39;;;;;;;43.03;22.02;;;;;;;;;;5136146;27;20011;-71
2021/03/01 01:10:06;;;;;;;44.70;24.25;;;;;;;;;;5118232;27;20018;-71
2021/03/01 01:12:36;;;;;;;38.03;22.75;;;;;;;;;;5136898;27;20385;-71
2021/03/01 01:15:04;;;;;;;37.78;20.98;;;;;;;;;;5117830;27;20018;-71
2021/03/01 01:17:30;;;;;;;34.08;20.90;;;;;;;;;;5136766;27;20019;-71
2021/03/01 01:19:56;;;;;;;35.95;20.33;;;;;;;;;;5117666;27;20026;-71
2021/03/01 01:22:23;;;;;;;33.20;19.13;;;;;;;;;;5136012;27;20027;-71
2021/03/01 01:24:49;;;;;;;32.38;18.23;;;;;;;;;;5118448;27;20344;-71
2021/03/01 01:27:15;;;;;;;35.03;18.25;;;;;;;;;;5117633;27;20013;-71
2021/03/01 01:29:41;;;;;;;31.65;18.15;;;;;;;;;;5136841;27;20015;-71
2021/03/01 01:32:07;;;;;;;38.10;19.85;;;;;;;;;;5117833;27;20161;-69
2021/03/01 01:34:33;;;;;;;33.47;19.10;;;;;;;;;;5117443;27;20022;-69
2021/03/01 01:36:59;;;;;;;29.73;16.42;;;;;;;;;;5136139;27;20090;-71
2021/03/01 01:39:25;;;;;;;30.35;17.05;;;;;;;;;;5136050;27;20094;-71
2021/03/01 01:41:51;;;;;;;32.17;17.70;;;;;;;;;;5135759;27;20039;-71
2021/03/01 01:44:17;;;;;;;34.67;16.70;;;;;;;;;;5135953;27;20050;-72
2021/03/01 01:46:44;;;;;;;30.55;15.60;;;;;;;;;;5117550;27;20011;-72
2021/03/01 01:49:10;;;;;;;33.45;15.50;;;;;;;;;;5117151;27;20016;-71
2021/03/01 01:51:36;;;;;;;28.85;16.55;;;;;;;;;;5118037;27;20038;-72
2021/03/01 01:54:02;;;;;;;33.67;18.20;;;;;;;;;;5135767;27;20072;-71
2021/03/01 01:56:28;;;;;;;25.58;15.77;;;;;;;;;;5117293;27;20495;-70
2021/03/01 01:58:54;;;;;;;28.30;16.55;;;;;;;;;;5117254;27;20026;-70
2021/03/01 02:01:20;;;;;;;24.58;14.07;;;;;;;;;;5135952;27;20019;-70
2021/03/01 02:04:05;;;;;;;26.80;14.98;;;;;;;;;;5135320;27;20027;-70
2021/03/01 02:06:36;;;;;;;28.50;15.07;;;;;;;;;;5135829;27;20030;-71
2021/03/01 02:09:06;;;;;;;25.98;14.85;;;;;;;;;;5117050;27;20075;-71
2021/03/01 02:11:51;;;;;;;25.08;14.77;;;;;;;;;;5135288;27;20038;-72
2021/03/01 02:14:25;;;;;;;25.50;15.05;;;;;;;;;;5135440;27;20030;-72
2021/03/01 02:16:51;;;;;;;24.70;15.18;;;;;;;;;;5135121;27;20023;-72
2021/03/01 02:19:20;;;;;;;29.42;14.68;;;;;;;;;;5116876;27;20046;-72
2021/03/01 02:21:46;;;;;;;23.45;13.65;;;;;;;;;;5116788;27;20019;-72
2021/03/01 02:24:22;;;;;;;25.63;14.45;;;;;;;;;;5116588;27;20023;-72
2021/03/01 02:26:49;;;;;;;30.83;15.48;;;;;;;;;;5116766;27;20524;-69
2021/03/01 02:29:18;;;;;;;21.20;13.95;;;;;;;;;;5135480;27;20015;-69
2021/03/01 02:31:45;;;;;;;29.13;16.73;;;;;;;;;;5134890;27;20019;-69
2021/03/01 02:34:14;;;;;;;31.23;16.70;;;;;;;;;;5135112;27;20018;-69
2021/03/01 02:36:42;;;;;;;27.35;15.02;;;;;;;;;;5134783;27;20015;-71
2021/03/01 02:39:08;;;;;;;23.55;13.15;;;;;;;;;;5135233;27;20086;-72
2021/03/01 02:41:34;;;;;;;23.60;14.70;;;;;;;;;;5135138;27;20047;-71
2021/03/01 02:44:01;;;;;;;32.63;16.20;;;;;;;;;;5116164;27;20019;-71
2021/03/01 02:46:27;;;;;;;22.67;13.15;;;;;;;;;;5135070;27;20023;-71
2021/03/01 02:48:54;;;;;;;22.90;13.02;;;;;;;;;;5116240;27;20015;-71
2021/03/01 02:51:21;;;;;;;27.98;15.15;;;;;;;;;;5134813;27;20019;-71
2021/03/01 02:53:47;;;;;;;27.27;16.05;;;;;;;;;;5134878;27;20076;-71
2021/03/01 02:56:15;;;;;;;25.38;14.15;;;;;;;;;;5134823;27;20023;-71
2021/03/01 02:58:42;;;;;;;25.95;12.55;;;;;;;;;;5115813;28;20015;-71
2021/03/01 03:01:09;;;;;;;29.92;15.88;;;;;;;;;;5134785;28;20528;-70
2021/03/01 03:03:36;;;;;;;25.23;13.75;;;;;;;;;;5134727;28;20023;-69
2021/03/01 03:06:04;;;;;;;22.90;12.80;;;;;;;;;;5134468;28;20047;-69
2021/03/01 03:08:31;;;;;;;20.58;13.90;;;;;;;;;;5134858;28;20007;-70
2021/03/01 03:10:58;;;;;;;20.30;12.80;;;;;;;;;;5116009;28;20030;-70
2021/03/01 03:13:24;;;;;;;20.08;11.93;;;;;;;;;;5134371;28;20148;-70
2021/03/01 03:15:53;;;;;;;25.27;13.98;;;;;;;;;;5134416;28;20479;-70
2021/03/01 03:18:19;;;;;;;26.92;13.50;;;;;;;;;;5134625;28;20023;-70
2021/03/01 03:20:46;;;;;;;26.35;12.95;;;;;;;;;;5134345;28;20019;-70
2021/03/01 03:23:12;;;;;;;29.77;14.05;;;;;;;;;;5116651;28;20094;-70
2021/03/01 03:25:38;;;;;;;23.00;13.90;;;;;;;;;;5134291;28;20340;-70
2021/03/01 03:28:05;;;;;;;21.38;11.95;;;;;;;;;;5115837;28;20022;-70
2021/03/01 03:30:31;;;;;;;24.05;12.57;;;;;;;;;;5134550;28;20019;-70
2021/03/01 03:32:57;;;;;;;22.35;12.95;;;;;;;;;;5134226;28;20416;-70
2021/03/01 03:35:23;;;;;;;25.05;14.68;;;;;;;;;;5134465;28;20029;-70
2021/03/01 03:37:55;;;;;;;22.00;12.70;;;;;;;;;;5134485;28;20019;-68
2021/03/01 03:40:22;;;;;;;22.83;12.25;;;;;;;;;;5134619;28;20360;-69
2021/03/01 03:42:49;;;;;;;22.38;12.82;;;;;;;;;;5116228;28;20125;-70
2021/03/01 03:45:17;;;;;;;22.80;12.13;;;;;;;;;;5116093;28;20019;-70
2021/03/01 03:47:48;;;;;;;19.52;12.52;;;;;;;;;;5115605;28;20026;-68
2021/03/01 03:50:14;;;;;;;25.42;13.10;;;;;;;;;;5115995;28;20058;-68
2021/03/01 03:52:42;;;;;;;24.27;13.80;;;;;;;;;;5116752;28;20400;-68
2021/03/01 03:55:08;;;;;;;;;;;;;;;;;;5134417;28;20174;-68
2021/03/01 03:57:37;;;;;;;21.23;13.57;;;;;;;;;;5115841;28;19965;-68
2021/03/01 04:00:05;;;;;;;23.10;13.98;;;;;;;;;;5134475;28;20068;-68
2021/03/01 04:02:34;;;;;;;25.98;15.35;;;;;;;;;;5136033;27;20019;-68
2021/03/01 04:05:03;;;;;;;25.85;13.52;;;;;;;;;;5137938;27;20019;-68
2021/03/01 04:07:29;;;;;;;27.30;15.50;;;;;;;;;;5137644;27;20053;-68
2021/03/01 04:09:56;;;;;;;24.92;14.75;;;;;;;;;;5119162;27;20363;-68
2021/03/01 04:12:22;;;;;;;25.83;15.25;;;;;;;;;;5138394;27;20023;-68
2021/03/01 04:14:50;;;;;;;31.40;14.68;;;;;;;;;;5137161;27;20019;-67
2021/03/01 04:17:17;;;;;;;42.30;21.50;;;;;;;;;;5119859;27;20356;-68
2021/03/01 04:19:44;;;;;;;38.15;18.50;;;;;;;;;;5137941;27;20019;-69
2021/03/01 04:22:11;;;;;;;30.40;18.35;;;;;;;;;;5118850;27;20022;-68
2021/03/01 04:24:38;;;;;;;26.17;14.43;;;;;;;;;;5137579;27;20102;-68
2021/03/01 04:27:04;;;;;;;26.10;14.15;;;;;;;;;;5126113;27;20082;-68
2021/03/01 04:29:31;;;;;;;23.08;13.07;;;;;;;;;;5126495;27;20463;-68
2021/03/01 04:31:58;;;;;;;29.97;13.07;;;;;;;;;;5105526;27;20495;-69
2021/03/01 04:34:25;;;;;;;22.10;13.80;;;;;;;;;;5119788;27;20031;-68
2021/03/01 04:36:51;;;;;;;27.35;13.88;;;;;;;;;;5099749;27;20011;-67
2021/03/01 04:39:18;;;;;;;29.45;15.35;;;;;;;;;;5106760;27;20363;-67
2021/03/01 04:41:45;;;;;;;24.67;13.82;;;;;;;;;;5130642;27;20105;-67
2021/03/01 04:44:12;;;;;;;28.75;15.15;;;;;;;;;;5119519;27;20022;-68
2021/03/01 04:46:38;;;;;;;27.35;14.30;;;;;;;;;;5128280;27;20015;-68
2021/03/01 04:49:05;;;;;;;22.65;13.88;;;;;;;;;;5124312;27;20022;-68
2021/03/01 04:51:32;;;;;;;24.73;14.23;;;;;;;;;;5120838;27;20047;-68
2021/03/01 04:53:59;;;;;;;28.98;16.10;;;;;;;;;;5122952;27;20023;-68
2021/03/01 04:56:26;;;;;;;27.55;15.57;;;;;;;;;;5121846;27;20023;-68
2021/03/01 04:58:52;;;;;;;28.97;15.10;;;;;;;;;;5128653;27;20026;-68
2021/03/01 05:01:19;;;;;;;26.67;15.48;;;;;;;;;;5129834;27;20495;-70
2021/03/01 05:03:46;;;;;;;31.27;16.08;;;;;;;;;;5122066;27;20030;-69
2021/03/01 05:06:13;;;;;;;30.27;15.73;;;;;;;;;;5114855;28;20016;-68
2021/03/01 05:08:40;;;;;;;32.42;15.90;;;;;;;;;;5114314;28;20020;-68
2021/03/01 05:11:06;;;;;;;30.42;16.48;;;;;;;;;;5095424;28;20065;-68
2021/03/01 05:13:33;;;;;;;35.20;18.88;;;;;;;;;;5095790;28;20368;-68
2021/03/01 05:15:59;;;;;;;33.30;17.20;;;;;;;;;;5096156;28;20405;-68
2021/03/01 05:18:26;;;;;;;28.27;15.93;;;;;;;;;;5114164;28;20024;-69
2021/03/01 05:20:54;;;;;;;28.48;15.20;;;;;;;;;;5114829;28;20019;-69
2021/03/01 05:23:21;;;;;;;55.55;23.85;;;;;;;;;;5097512;28;20019;-68
2021/03/01 05:25:47;;;;;;;45.80;20.23;;;;;;;;;;5115542;28;20026;-68
2021/03/01 05:28:13;;;;;;;33.03;16.40;;;;;;;;;;5097520;28;20019;-68
2021/03/01 05:30:39;;;;;;;34.25;17.45;;;;;;;;;;5115436;28;20387;-68
2021/03/01 05:33:05;;;;;;;34.30;17.70;;;;;;;;;;5097066;28;20016;-68
2021/03/01 05:35:32;;;;;;;29.02;17.80;;;;;;;;;;5115653;28;20396;-68
2021/03/01 05:37:58;;;;;;;41.63;18.50;;;;;;;;;;5115796;28;20045;-68
2021/03/01 05:40:24;;;;;;;40.38;18.83;;;;;;;;;;5115039;28;20019;-67
2021/03/01 05:42:50;;;;;;;41.08;21.25;;;;;;;;;;5097187;28;20491;-68
2021/03/01 05:45:17;;;;;;;52.67;25.00;;;;;;;;;;5115742;28;20028;-68
2021/03/01 05:47:43;;;;;;;49.08;25.40;;;;;;;;;;5115116;28;20024;-68
2021/03/01 05:50:10;;;;;;;62.30;30.27;;;;;;;;;;5115348;28;20019;-68
2021/03/01 05:52:36;;;;;;;;;;;;;;;;;;5116168;28;20448;-68
2021/03/01 05:55:03;;;;;;;60.63;27.70;;;;;;;;;;5114942;28;19994;-69
2021/03/01 05:57:30;;;;;;;63.55;29.30;;;;;;;;;;5114907;28;20030;-68
2021/03/01 05:59:56;;;;;;;67.43;27.20;;;;;;;;;;5114910;28;20012;-68
2021/03/01 06:02:23;;;;;;;57.72;27.88;;;;;;;;;;5115075;28;20034;-68
2021/03/01 06:04:49;;;;;;;71.03;33.30;;;;;;;;;;5114789;28;20038;-68
2021/03/01 06:07:15;;;;;;;108.40;50.53;;;;;;;;;;5114749;28;20023;-69
2021/03/01 06:09:41;;;;;;;118.28;59.63;;;;;;;;;;5096706;28;20015;-68
2021/03/01 06:12:07;;;;;;;144.15;78.90;;;;;;;;;;5096666;28;20477;-68
2021/03/01 06:14:34;;;;;;;131.32;69.18;;;;;;;;;;5096367;28;20488;-69
2021/03/01 06:17:16;;;;;;;109.30;53.67;;;;;;;;;;5114885;28;20448;-68
2021/03/01 06:19:46;;;;;;;76.45;34.97;;;;;;;;;;5115144;28;20020;-68
2021/03/01 06:22:12;;;;;;;40.20;21.38;;;;;;;;;;5114432;28;20016;-68
2021/03/01 06:24:38;;;;;;;46.25;24.13;;;;;;;;;;5095828;28;20020;-68
2021/03/01 06:27:05;;;;;;;44.67;22.25;;;;;;;;;;5114855;28;20081;-69
2021/03/01 06:29:31;;;;;;;438.70;206.38;;;;;;;;;;5114435;28;20016;-68
2021/03/01 06:31:57;;;;;;;277.30;130.43;;;;;;;;;;5097175;28;20465;-68
2021/03/01 06:34:34;;;;;;;111.82;46.10;;;;;;;;;;5096893;28;20024;-68
2021/03/01 06:37:03;;;;;;;80.22;38.85;;;;;;;;;;5114244;28;20016;-69
2021/03/01 06:39:43;;;;;;;146.13;59.78;;;;;;;;;;5114257;28;20023;-68
2021/03/01 06:42:21;;;;;;;84.60;39.88;;;;;;;;;;5114326;28;20051;-64
2021/03/01 06:44:57;;;;;;;36.42;19.40;;;;;;;;;;5114410;28;20489;-67
2021/03/01 06:47:41;;;;;;;47.08;22.50;;;;;;;;;;5096200;28;20059;-66
2021/03/01 06:50:08;;;;;;;79.45;34.35;;;;;;;;;;5096186;28;20015;-68
2021/03/01 06:52:37;;;;;;;71.28;33.75;;;;;;;;;;5096170;28;20337;-72
2021/03/01 06:55:13;;;;;;;60.97;32.20;;;;;;;;;;5114541;28;20383;-71
2021/03/01 06:57:39;;;;;;;52.22;24.80;;;;;;;;;;5095713;28;20030;-71
2021/03/01 07:00:07;;;;;;;48.03;21.92;;;;;;;;;;5114534;28;20124;-67
2021/03/01 07:02:39;;;;;;;52.75;28.40;;;;;;;;;;5114215;28;20055;-68
2021/03/01 07:05:06;;;;;;;44.47;23.42;;;;;;;;;;5113998;28;20027;-70
2021/03/01 07:07:36;;;;;;;47.47;24.83;;;;;;;;;;5096504;28;20181;-70
2021/03/01 07:10:04;;;;;;;43.30;22.33;;;;;;;;;;5114252;28;20035;-70
2021/03/01 07:12:56;;;;;;;46.75;25.30;;;;;;;;;;5095927;28;20365;-72
2021/03/01 07:15:22;;;;;;;42.63;23.35;;;;;;;;;;5109674;28;20341;-72
2021/03/01 07:17:49;;;;;;;47.03;22.80;;;;;;;;;;5095549;28;20062;-69
2021/03/01 07:20:15;;;;;;;47.95;23.52;;;;;;;;;;5114936;28;20016;-68
2021/03/01 07:22:42;;;;;;;59.80;29.47;;;;;;;;;;5095739;28;20058;-69
2021/03/01 07:25:10;;;;;;;55.85;26.65;;;;;;;;;;5113548;28;20582;-67
2021/03/01 07:27:38;;;;;;;49.42;23.45;;;;;;;;;;5096271;28;20027;-68
2021/03/01 07:30:05;;;;;;;38.50;20.23;;;;;;;;;;5095789;28;20019;-69
2021/03/01 07:32:31;;;;;;;40.17;21.88;;;;;;;;;;5113432;28;20035;-68
2021/03/01 07:34:57;;;;;;;47.03;22.45;;;;;;;;;;5095724;28;20114;-67
2021/03/01 07:37:24;;;;;;;38.30;21.20;;;;;;;;;;5118325;28;20102;-69
2021/03/01 07:39:50;;;;;;;29.00;16.67;;;;;;;;;;5099718;28;20404;-70
2021/03/01 07:42:17;;;;;;;30.58;18.25;;;;;;;;;;5117535;28;20271;-67
2021/03/01 07:44:45;;;;;;;29.40;15.23;;;;;;;;;;5099322;28;20032;-67
2021/03/01 07:47:12;;;;;;;30.83;16.60;;;;;;;;;;5117566;28;20016;-67
2021/03/01 07:49:48;;;;;;;24.30;14.32;;;;;;;;;;5117543;28;20043;-67
2021/03/01 07:52:21;;;;;;;28.03;14.07;;;;;;;;;;5099305;28;20012;-67
2021/03/01 07:54:51;;;;;;;28.80;15.65;;;;;;;;;;5118031;28;20015;-67
2021/03/01 07:57:18;;;;;;;25.42;15.27;;;;;;;;;;5122443;27;20043;-67
2021/03/01 07:59:44;;;;;;;32.50;17.25;;;;;;;;;;5119343;27;20018;-68
2021/03/01 08:02:14;;;;;;;28.33;15.50;;;;;;;;;;5137081;27;20456;-66
2021/03/01 08:04:41;;;;;;;26.42;14.88;;;;;;;;;;5119766;27;20455;-66
2021/03/01 08:07:07;;;;;;;24.97;13.73;;;;;;;;;;5137729;27;20352;-68
2021/03/01 08:09:47;;;;;;;25.90;14.20;;;;;;;;;;5137991;27;20026;-68
2021/03/01 08:12:29;;;;;;;25.80;15.32;;;;;;;;;;5137913;27;20064;-67
2021/03/01 08:14:56;;;;;;;26.65;15.55;;;;;;;;;;5137271;27;20019;-67
2021/03/01 08:17:24;;;;;;;;;;;;;;;;;;5138424;27;20050;-70
2021/03/01 08:19:54;;;;;;;21.02;13.52;;;;;;;;;;5118942;27;19899;-72
2021/03/01 08:22:20;;;;;;;23.35;13.43;;;;;;;;;;5119143;27;20027;-66
2021/03/01 08:24:49;;;;;;;20.92;13.40;;;;;;;;;;5137452;27;20106;-67
2021/03/01 08:27:27;;;;;;;23.00;13.52;;;;;;;;;;5137383;27;20007;-66
2021/03/01 08:30:12;;;;;;;24.23;13.35;;;;;;;;;;5137754;27;20109;-68
2021/03/01 08:32:39;;;;;;;26.33;13.90;;;;;;;;;;5118930;27;20075;-67
2021/03/01 08:35:23;;;;;;;32.17;15.43;;;;;;;;;;5136644;27;20058;-68
2021/03/01 08:37:50;;;;;;;26.73;14.75;;;;;;;;;;5137222;27;20049;-72
2021/03/01 08:40:21;;;;;;;22.08;14.70;;;;;;;;;;5132920;27;20008;-70
2021/03/01 08:42:49;;;;;;;33.78;17.52;;;;;;;;;;5093353;28;20563;-69
2021/03/01 08:45:15;;;;;;;;;;;;;;;;;;5111659;28;20018;-69
2021/03/01 08:47:51;;;;;;;25.77;12.38;;;;;;;;;;5115158;28;19904;-70
2021/03/01 08:50:21;;;;;;;21.77;13.40;;;;;;;;;;5116969;28;20057;-70
2021/03/01 08:52:48;;;;;;;28.88;13.40;;;;;;;;;;5115139;28;20072;-70
2021/03/01 08:55:15;;;;;;;17.23;11.30;;;;;;;;;;5099213;28;20506;-70
2021/03/01 08:57:57;;;;;;;20.02;10.68;;;;;;;;;;5085893;28;20046;-70
2021/03/01 09:00:24;;;;;;;19.73;10.10;;;;;;;;;;5096000;28;20153;-71
2021/03/01 09:02:50;;;;;;;27.93;15.60;;;;;;;;;;5095220;28;20024;-70
2021/03/01 09:05:19;;;;;;;20.33;12.38;;;;;;;;;;5095796;28;20320;-71
2021/03/01 09:07:46;;;;;;;16.23;10.10;;;;;;;;;;5095438;28;20023;-67
2021/03/01 09:10:13;;;;;;;21.90;8.88;;;;;;;;;;5095153;28;20031;-70
2021/03/01 09:12:43;;;;;;;21.65;10.35;;;;;;;;;;5094216;28;20036;-69
2021/03/01 09:15:10;;;;;;;17.38;9.15;;;;;;;;;;5095724;28;20028;-71
2021/03/01 09:17:36;;;;;;;17.80;9.90;;;;;;;;;;5095108;28;20027;-69
2021/03/01 09:20:03;;;;;;;23.27;10.27;;;;;;;;;;5095426;28;20020;-70
2021/03/01 09:22:45;;;;;;;18.85;11.00;;;;;;;;;;5094110;28;20024;-71
2021/03/01 09:25:26;;;;;;;19.25;11.30;;;;;;;;;;5095397;28;20016;-69
2021/03/01 09:27:52;;;;;;;17.15;10.25;;;;;;;;;;5095350;28;20023;-69
2021/03/01 09:30:22;;;;;;;18.92;11.40;;;;;;;;;;5093704;28;20023;-69
2021/03/01 09:33:03;;;;;;;20.75;12.00;;;;;;;;;;5094023;28;20024;-69
2021/03/01 09:35:32;;;;;;;21.73;13.63;;;;;;;;;;5095085;28;20020;-71
2021/03/01 09:37:58;;;;;;;22.75;13.70;;;;;;;;;;5093597;28;20031;-69
2021/03/01 09:40:25;;;;;;;17.10;12.13;;;;;;;;;;5088023;28;20091;-70
2021/03/01 09:42:53;;;;;;;23.80;13.80;;;;;;;;;;5125125;27;20023;-69
2021/03/01 09:45:21;;;;;;;24.58;15.93;;;;;;;;;;5105209;27;20368;-69
2021/03/01 09:47:48;;;;;;;21.63;13.40;;;;;;;;;;5123708;27;20015;-69
2021/03/01 09:50:14;;;;;;;20.73;12.45;;;;;;;;;;5104667;27;20020;-68
2021/03/01 09:52:41;;;;;;;16.10;11.15;;;;;;;;;;5124223;27;20016;-68
2021/03/01 09:55:09;;;;;;;17.48;10.98;;;;;;;;;;5125033;27;20066;-70
2021/03/01 09:57:35;;;;;;;19.73;11.60;;;;;;;;;;5122747;27;20060;-69
2021/03/01 10:00:19;;;;;;;20.77;13.63;;;;;;;;;;5104636;27;20443;-70
2021/03/01 10:02:53;;;;;;;19.65;13.73;;;;;;;;;;5123868;27;20376;-70
2021/03/01 10:05:20;;;;;;;17.27;10.48;;;;;;;;;;5123199;27;20007;-68
2021/03/01 10:07:53;;;;;;;19.25;10.75;;;;;;;;;;5123153;27;20087;-70
2021/03/01 10:10:20;;;;;;;17.33;10.73;;;;;;;;;;5123218;27;20043;-69
2021/03/01 10:12:50;;;;;;;20.08;11.07;;;;;;;;;;5123257;27;20071;-68
2021/03/01 10:15:17;;;;;;;20.38;10.85;;;;;;;;;;5124605;27;20086;-68
2021/03/01 10:17:43;;;;;;;13.00;8.20;;;;;;;;;;5123651;27;20016;-69
2021/03/01 10:20:13;;;;;;;15.43;9.07;;;;;;;;;;5122517;27;20068;-69
2021/03/01 10:22:58;;;;;;;10.25;7.68;;;;;;;;;;5122851;27;20110;-69
2021/03/01 10:25:31;;;;;;;10.85;7.47;;;;;;;;;;5106320;27;20083;-68
2021/03/01 10:27:57;;;;;;;19.35;10.25;;;;;;;;;;5116938;27;20402;-69
2021/03/01 10:30:23;;;;;;;13.60;6.88;;;;;;;;;;5114880;28;20023;-68
2021/03/01 10:32:50;;;;;;;10.63;7.82;;;;;;;;;;5113966;28;20353;-68
2021/03/01 10:35:19;;;;;;;15.73;8.93;;;;;;;;;;5114591;28;20012;-70
2021/03/01 10:38:02;;;;;;;17.63;10.50;;;;;;;;;;5096217;28;20012;-68
2021/03/01 10:40:29;;;;;;;13.70;7.60;;;;;;;;;;5095476;28;20020;-66
2021/03/01 10:42:55;;;;;;;;;;;;;;;;;;5114810;28;20090;-68
2021/03/01 10:45:21;;;;;;;13.90;7.45;;;;;;;;;;5096189;28;19900;-69
2021/03/01 10:48:01;;;;;;;12.82;9.70;;;;;;;;;;5114024;28;20020;-69
2021/03/01 10:50:27;;;;;;;21.40;10.05;;;;;;;;;;5114328;28;20016;-72
2021/03/01 10:52:53;;;;;;;17.45;9.23;;;;;;;;;;5113977;28;20047;-69
2021/03/01 10:55:19;;;;;;;11.55;7.97;;;;;;;;;;5113879;28;20456;-68
2021/03/01 10:57:46;;;;;;;15.53;10.67;;;;;;;;;;5114235;28;20031;-71
2021/03/01 11:00:12;;;;;;;14.60;8.25;;;;;;;;;;5096003;28;20047;-70
2021/03/01 11:02:38;;;;;;;12.05;8.35;;;;;;;;;;5113856;28;20115;-70
2021/03/01 11:05:04;;;;;;;10.70;8.27;;;;;;;;;;5113825;28;20016;-71
2021/03/01 11:07:30;;;;;;;16.02;11.77;;;;;;;;;;5113808;28;20020;-68
2021/03/01 11:09:57;;;;;;;12.60;9.98;;;;;;;;;;5098821;27;20011;-69
2021/03/01 11:12:23;;;;;;;12.30;8.95;;;;;;;;;;5138779;27;20007;-69
2021/03/01 11:14:49;;;;;;;15.43;10.27;;;;;;;;;;5138650;27;20088;-70
2021/03/01 11:17:15;;;;;;;15.38;10.02;;;;;;;;;;5138506;27;20349;-69
2021/03/01 11:19:41;;;;;;;14.73;9.93;;;;;;;;;;5138427;27;20754;-70
2021/03/01 11:22:07;;;;;;;11.73;7.95;;;;;;;;;;5135139;27;20076;-68
2021/03/01 11:24:33;;;;;;;11.45;8.02;;;;;;;;;;5135651;27;20356;-70
2021/03/01 11:27:00;;;;;;;11.65;8.77;;;;;;;;;;5119985;27;20026;-68
2021/03/01 11:29:26;;;;;;;14.65;9.05;;;;;;;;;;5138521;27;20011;-70
2021/03/01 11:31:52;;;;;;;11.25;7.20;;;;;;;;;;5120227;27;20355;-70
2021/03/01 11:34:19;;;;;;;11.23;7.17;;;;;;;;;;5119599;27;20172;-67
2021/03/01 11:36:45;;;;;;;9.87;6.47;;;;;;;;;;5138649;27;20019;-67
2021/03/01 11:39:15;;;;;;;10.77;5.97;;;;;;;;;;5119917;27;20011;-68
2021/03/01 11:41:41;;;;;;;14.25;5.78;;;;;;;;;;5137770;27;20080;-67
2021/03/01 11:44:08;;;;;;;13.27;6.63;;;;;;;;;;5138276;27;20031;-69
2021/03/01 11:46:35;;;;;;;11.25;7.07;;;;;;;;;;5137681;27;20086;-70
2021/03/01 11:49:01;;;;;;;12.00;7.15;;;;;;;;;;5119794;27;20356;-69
2021/03/01 11:51:27;;;;;;;7.90;6.97;;;;;;;;;;5137818;27;20011;-70
2021/03/01 11:53:53;;;;;;;10.00;6.18;;;;;;;;;;5119717;27;20015;-68
2021/03/01 11:56:20;;;;;;;10.88;7.55;;;;;;;;;;5137802;27;20042;-70
2021/03/01 11:58:46;;;;;;;12.57;5.90;;;;;;;;;;5119663;27;20011;-69
2021/03/01 12:01:12;;;;;;;8.73;4.50;;;;;;;;;;5119215;27;20122;-69
2021/03/01 12:03:39;;;;;;;9.63;5.90;;;;;;;;;;5137780;27;20460;-71
2021/03/01 12:06:06;;;;;;;7.07;4.35;;;;;;;;;;5137922;27;20011;-69
2021/03/01 12:08:32;;;;;;;8.27;5.18;;;;;;;;;;5137564;27;20102;-68
2021/03/01 12:10:58;;;;;;;6.75;4.85;;;;;;;;;;5119644;27;20122;-69
2021/03/01 12:13:25;;;;;;;6.30;5.25;;;;;;;;;;5119309;27;20118;-69
2021/03/01 12:15:51;;;;;;;7.05;4.93;;;;;;;;;;5136856;27;20090;-69
2021/03/01 12:18:19;;;;;;;8.00;6.30;;;;;;;;;;5125256;27;20022;-73
2021/03/01 12:20:52;;;;;;;8.95;6.72;;;;;;;;;;5126179;27;20050;-74
2021/03/01 12:23:24;;;;;;;7.57;6.10;;;;;;;;;;5123352;27;20103;-71
2021/03/01 12:26:00;;;;;;;8.73;6.45;;;;;;;;;;5106518;27;20019;-74
2021/03/01 12:28:45;;;;;;;8.05;4.97;;;;;;;;;;5125903;27;20533;-75
2021/03/01 12:31:15;;;;;;;7.95;4.80;;;;;;;;;;5127042;27;20012;-73
2021/03/01 12:33:42;;;;;;;4.90;4.43;;;;;;;;;;5107727;27;20019;-70
2021/03/01 12:36:11;;;;;;;9.80;6.45;;;;;;;;;;5107587;27;20341;-74
2021/03/01 12:38:38;;;;;;;24.92;12.70;;;;;;;;;;5124442;27;20365;-70
2021/03/01 12:41:06;;;;;;;12.23;8.15;;;;;;;;;;5125066;27;20027;-71
2021/03/01 12:43:32;;;;;;;9.27;6.43;;;;;;;;;;5125440;27;20032;-68
2021/03/01 12:45:59;;;;;;;9.80;4.07;;;;;;;;;;5124485;27;20023;-71
2021/03/01 12:48:25;;;;;;;20.30;9.73;;;;;;;;;;5124738;27;20011;-68
2021/03/01 12:50:51;;;;;;;7.65;4.97;;;;;;;;;;5124919;27;20011;-69
2021/03/01 12:53:17;;;;;;;34.47;17.85;;;;;;;;;;5129442;27;20025;-70
2021/03/01 12:55:43;;;;;;;15.65;8.88;;;;;;;;;;5136862;27;20030;-68
2021/03/01 12:58:09;;;;;;;18.33;10.27;;;;;;;;;;5136478;27;20015;-69
2021/03/01 13:00:36;;;;;;;29.35;14.15;;;;;;;;;;5136892;27;20418;-68
2021/03/01 13:03:02;;;;;;;12.23;5.82;;;;;;;;;;5137020;27;20027;-70
2021/03/01 13:05:29;;;;;;;10.90;6.90;;;;;;;;;;5117968;27;20012;-68
2021/03/01 13:07:55;;;;;;;6.78;5.00;;;;;;;;;;5136513;27;20019;-68
2021/03/01 13:10:21;;;;;;;9.27;6.72;;;;;;;;;;5136545;27;20022;-69
2021/03/01 13:12:47;;;;;;;5.70;5.10;;;;;;;;;;5118245;27;20025;-70
2021/03/01 13:15:14;;;;;;;7.53;5.15;;;;;;;;;;5136482;27;20042;-69
2021/03/01 13:17:40;;;;;;;5.72;4.45;;;;;;;;;;5117736;27;20106;-68
2021/03/01 13:20:06;;;;;;;9.52;4.55;;;;;;;;;;5112489;27;20011;-66
2021/03/01 13:22:33;;;;;;;4.77;4.27;;;;;;;;;;5097468;28;20028;-69
2021/03/01 13:24:59;;;;;;;7.28;5.70;;;;;;;;;;5097119;28;20244;-69
2021/03/01 13:27:25;;;;;;;6.38;5.22;;;;;;;;;;5115664;28;20016;-69
2021/03/01 13:29:51;;;;;;;8.65;5.35;;;;;;;;;;5126531;27;20026;-68
2021/03/01 13:32:17;;;;;;;9.73;4.70;;;;;;;;;;5135630;27;20037;-69
2021/03/01 13:34:43;;;;;;;9.93;4.43;;;;;;;;;;5135956;27;20508;-69
2021/03/01 13:37:10;;;;;;;7.28;4.43;;;;;;;;;;5136168;27;20019;-69
2021/03/01 13:39:36;;;;;;;4.88;4.10;;;;;;;;;;5131352;27;20019;-69
2021/03/01 13:42:02;;;;;;;8.35;4.80;;;;;;;;;;5117602;27;20043;-68
2021/03/01 13:44:28;;;;;;;6.53;4.75;;;;;;;;;;5116906;27;20422;-68
2021/03/01 13:46:54;;;;;;;6.75;4.40;;;;;;;;;;5135361;27;20023;-68
2021/03/01 13:49:21;;;;;;;5.68;4.45;;;;;;;;;;5135557;27;20056;-69
2021/03/01 13:51:47;;;;;;;6.32;4.03;;;;;;;;;;5134142;27;20011;-70
2021/03/01 13:54:13;;;;;;;11.95;4.55;;;;;;;;;;5135497;27;20053;-70
2021/03/01 13:56:39;;;;;;;5.10;4.30;;;;;;;;;;5135782;27;20027;-69
2021/03/01 13:59:05;;;;;;;5.55;4.25;;;;;;;;;;5133883;27;20015;-69
2021/03/01 14:01:32;;;;;;;4.55;3.83;;;;;;;;;;5111511;27;20023;-68
2021/03/01 14:03:58;;;;;;;13.05;4.97;;;;;;;;;;5107013;27;20035;-69
2021/03/01 14:06:27;;;;;;;6.90;4.78;;;;;;;;;;5132342;27;20030;-69
2021/03/01 14:08:53;;;;;;;7.55;4.40;;;;;;;;;;5117106;27;20026;-72
2021/03/01 14:11:19;;;;;;;5.90;3.17;;;;;;;;;;5135510;27;20068;-71
2021/03/01 14:13:46;;;;;;;7.40;3.58;;;;;;;;;;5135234;27;20057;-70
2021/03/01 14:16:12;;;;;;;3.53;2.08;;;;;;;;;;5131476;27;20019;-70
2021/03/01 14:18:38;;;;;;;5.88;2.35;;;;;;;;;;5116959;27;20023;-70
2021/03/01 14:21:05;;;;;;;5.40;1.73;;;;;;;;;;5116229;27;20504;-70
2021/03/01 14:23:31;;;;;;;5.50;3.17;;;;;;;;;;5130623;27;20034;-70
2021/03/01 14:25:57;;;;;;;5.72;3.97;;;;;;;;;;5135196;27;20020;-71
2021/03/01 14:28:24;;;;;;;3.17;2.20;;;;;;;;;;5116766;27;20015;-70